createdAt,value
2019-04-23T00:00:29.408Z,6.03
2019-04-23T00:03:28.730Z,5.90
2019-04-23T00:06:32.221Z,5.63
2019-04-23T00:09:39.915Z,5.80
2019-04-23T00:12:52.956Z,5.87
2019-04-23T00:16:22.227Z,6.00
2019-04-23T00:19:15.229Z,5.57
2019-04-23T00:22:36.978Z,5.73
2019-04-23T00:26:08.059Z,5.37
2019-04-23T00:29:08.345Z,6.43
2019-04-23T00:32:15.467Z,5.70
2019-04-23T00:35:12.587Z,5.80
2019-04-23T00:38:30.435Z,6.17
2019-04-23T00:44:46.263Z,6.00
2019-04-23T00:47:46.698Z,6.40
2019-04-23T00:54:02.262Z,6.80
2019-04-23T00:57:13.542Z,7.00
2019-04-23T01:00:23.839Z,6.20
2019-04-23T01:03:24.355Z,6.77
2019-04-23T01:06:45.291Z,6.83
2019-04-23T01:09:45.701Z,7.30
2019-04-23T01:15:59.654Z,6.73
2019-04-23T01:19:19.230Z,6.57
2019-04-23T01:21:55.952Z,7.10
2019-04-23T01:25:31.056Z,7.33
2019-04-23T01:28:57.415Z,7.03
2019-04-23T01:31:59.734Z,6.97
2019-04-23T01:35:18.924Z,6.90
2019-04-23T01:38:11.559Z,7.70
2019-04-23T01:41:21.702Z,7.63
2019-04-23T01:44:36.982Z,8.03
2019-04-23T01:47:40.622Z,7.83
2019-04-23T01:50:48.349Z,8.27
2019-04-23T01:53:54.242Z,8.23
2019-04-23T01:56:58.073Z,8.63
2019-04-23T02:00:08.533Z,8.40
2019-04-23T02:03:15.492Z,8.97
2019-04-23T02:06:29.742Z,8.80
2019-04-23T02:09:36.440Z,9.87
2019-04-23T02:12:42.118Z,9.87
2019-04-23T02:15:49.522Z,9.67
2019-04-23T02:19:09.980Z,9.90
2019-04-23T02:22:13.224Z,11.00
2019-04-23T02:25:49.044Z,10.60
2019-04-23T02:28:35.485Z,10.70
2019-04-23T02:41:09.020Z,11.57
2019-04-23T02:44:16.741Z,10.70
2019-04-23T02:50:35.001Z,11.67
2019-04-23T02:53:44.283Z,11.10
2019-04-23T03:00:07.849Z,11.43
2019-04-23T03:03:19.025Z,10.83
2019-04-23T03:06:10.690Z,11.07
2019-04-23T03:09:12.909Z,11.47
2019-04-23T03:12:24.888Z,11.40
2019-04-23T03:15:52.304Z,11.47
2019-04-23T03:19:09.881Z,12.20
2019-04-23T03:22:48.781Z,12.90
2019-04-23T03:25:35.707Z,11.70
2019-04-23T03:38:20.561Z,11.97
2019-04-23T03:41:23.603Z,12.20
2019-04-23T03:44:28.960Z,12.67
2019-04-23T03:50:39.453Z,12.20
2019-04-23T03:57:03.349Z,11.97
2019-04-23T04:00:14.532Z,13.20
2019-04-23T04:03:27.830Z,12.73
2019-04-23T04:21:58.456Z,12.93
2019-04-23T04:25:09.176Z,11.20
2019-04-23T04:28:12.193Z,12.20
2019-04-23T04:31:16.302Z,12.03
2019-04-23T04:34:40.100Z,11.90
2019-04-23T04:37:44.156Z,11.50
2019-04-23T04:40:39.519Z,12.03
2019-04-23T04:43:53.636Z,12.17
2019-04-23T04:46:49.987Z,12.37
2019-04-23T04:53:16.899Z,12.07
2019-04-23T04:59:39.876Z,12.67
2019-04-23T05:02:43.270Z,11.73
2019-04-23T05:15:01.737Z,11.07
2019-04-23T05:24:45.151Z,11.50
2019-04-23T05:28:08.342Z,11.00
2019-04-23T05:31:12.071Z,11.33
2019-04-23T05:34:24.404Z,10.87
2019-04-23T05:37:23.333Z,10.53
2019-04-23T05:43:38.022Z,9.70
2019-04-23T05:46:36.686Z,9.80
2019-04-23T05:52:59.588Z,10.13
2019-04-23T05:56:01.945Z,10.67
2019-04-23T05:59:14.822Z,10.00
2019-04-23T06:02:11.336Z,11.00
2019-04-23T06:18:01.757Z,10.43
2019-04-23T06:21:05.657Z,12.03
2019-04-23T06:24:17.000Z,10.50
2019-04-23T06:27:22.048Z,10.70
2019-04-23T06:30:33.175Z,10.30
2019-04-23T06:33:32.240Z,10.40
2019-04-23T06:36:38.473Z,11.57
2019-04-23T06:43:11.730Z,10.60
2019-04-23T06:46:24.284Z,9.80
2019-04-23T06:49:30.558Z,10.53
2019-04-23T06:52:25.429Z,11.00
2019-04-23T06:55:44.538Z,11.00
2019-04-23T06:59:06.141Z,11.67
2019-04-23T07:01:59.383Z,11.00
2019-04-23T07:05:14.066Z,9.47
2019-04-23T07:08:12.101Z,10.60
2019-04-23T07:14:35.861Z,10.70
2019-04-23T07:17:30.777Z,10.90
2019-04-23T07:20:40.291Z,11.60
2019-04-23T07:26:52.829Z,11.43
2019-04-23T07:30:17.152Z,11.00
2019-04-23T07:33:19.110Z,11.20
2019-04-23T07:36:30.852Z,10.40
2019-04-23T07:42:55.080Z,11.00
2019-04-23T07:46:17.130Z,11.13
2019-04-23T07:49:23.709Z,10.40
2019-04-23T07:52:38.014Z,10.53
2019-04-23T07:55:56.816Z,10.10
2019-04-23T07:58:43.333Z,10.17
2019-04-23T08:01:51.194Z,10.67
2019-04-23T08:14:14.611Z,9.90
2019-04-23T08:17:27.817Z,9.57
2019-04-23T08:20:37.095Z,9.73
2019-04-23T08:24:01.613Z,10.47
2019-04-23T08:27:05.416Z,11.00
2019-04-23T08:30:09.407Z,10.60
2019-04-23T08:33:23.438Z,10.67
2019-04-23T08:36:35.833Z,10.13
2019-04-23T08:42:52.858Z,9.43
2019-04-23T08:46:15.550Z,9.83
2019-04-23T08:49:29.610Z,11.17
2019-04-23T08:52:30.761Z,10.07
2019-04-23T08:55:46.400Z,10.13
2019-04-23T08:58:41.630Z,9.57
2019-04-23T09:02:07.745Z,10.43
2019-04-23T09:05:11.113Z,9.60
2019-04-23T09:11:30.769Z,9.80
2019-04-23T09:14:08.919Z,9.40
2019-04-23T09:17:34.792Z,10.00
2019-04-23T09:20:30.994Z,9.97
2019-04-23T09:23:48.215Z,10.10
2019-04-23T09:27:01.928Z,9.37
2019-04-23T09:30:09.408Z,10.40
2019-04-23T09:33:28.851Z,11.00
2019-04-23T09:36:51.562Z,8.60
2019-04-23T09:40:10.827Z,10.10
2019-04-23T09:43:19.518Z,10.30
2019-04-23T09:46:58.841Z,10.10
2019-04-23T09:49:58.946Z,10.53
2019-04-23T09:53:17.743Z,9.43
2019-04-23T09:56:07.110Z,9.43
2019-04-23T09:59:26.090Z,9.50
2019-04-23T10:02:20.479Z,8.37
2019-04-23T10:05:22.082Z,9.60
2019-04-23T10:08:23.140Z,9.67
2019-04-23T10:11:26.087Z,10.50
2019-04-23T10:14:32.485Z,10.00
2019-04-23T10:17:38.134Z,9.83
2019-04-23T10:20:44.581Z,9.73
2019-04-23T10:23:51.539Z,9.70
2019-04-23T10:26:57.795Z,11.40
2019-04-23T10:30:04.081Z,10.20
2019-04-23T10:33:11.635Z,10.13
2019-04-23T10:36:21.114Z,10.03
2019-04-23T10:39:28.353Z,10.67
2019-04-23T10:42:34.058Z,10.30
2019-04-23T10:46:10.547Z,9.93
2019-04-23T10:49:55.438Z,10.40
2019-04-23T10:52:56.650Z,10.33
2019-04-23T10:59:06.582Z,10.47
2019-04-23T11:05:28.941Z,9.80
2019-04-23T11:08:33.062Z,10.33
2019-04-23T11:11:46.964Z,11.40
2019-04-23T11:14:58.398Z,10.23
2019-04-23T11:18:02.853Z,10.70
2019-04-23T11:24:20.783Z,9.50
2019-04-23T11:27:24.473Z,10.50
2019-04-23T11:33:39.598Z,10.30
2019-04-23T11:39:55.716Z,9.70
2019-04-23T11:43:14.318Z,10.37
2019-04-23T11:46:19.400Z,10.10
2019-04-23T11:49:26.804Z,9.30
2019-04-23T11:52:30.737Z,9.83
2019-04-23T11:55:40.361Z,10.80
2019-04-23T11:58:39.239Z,10.57
2019-04-23T12:11:52.921Z,9.03
2019-04-23T12:14:47.303Z,9.73
2019-04-23T12:18:11.095Z,9.87
2019-04-23T12:21:13.422Z,11.33
2019-04-23T12:24:53.630Z,10.10
2019-04-23T12:30:39.536Z,9.63
2019-04-23T12:33:50.252Z,10.80
2019-04-23T12:36:56.934Z,10.10
2019-04-23T12:40:12.924Z,9.33
2019-04-23T12:43:13.364Z,9.80
2019-04-23T12:46:16.167Z,9.47
2019-04-23T12:49:50.526Z,10.10
2019-04-23T12:52:35.973Z,9.50
2019-04-23T12:55:42.189Z,9.67
2019-04-23T12:58:38.348Z,10.40
2019-04-23T13:01:57.673Z,10.50
2019-04-23T13:05:03.783Z,9.60
2019-04-23T13:08:15.472Z,9.90
2019-04-23T13:11:17.519Z,9.43
2019-04-23T13:14:29.961Z,9.10
2019-04-23T13:17:48.995Z,10.07
2019-04-23T13:20:38.461Z,10.00
2019-04-23T13:23:51.129Z,8.80
2019-04-23T13:27:04.628Z,10.57
2019-04-23T13:30:08.700Z,8.73
2019-04-23T13:33:24.056Z,10.67
2019-04-23T13:36:24.691Z,9.90
2019-04-23T13:39:33.020Z,9.53
2019-04-23T13:42:46.461Z,9.73
2019-04-23T13:45:59.679Z,9.83
2019-04-23T13:48:48.984Z,10.40
2019-04-23T13:52:06.044Z,9.50
2019-04-23T14:01:25.832Z,9.17
2019-04-23T14:05:02.104Z,9.30
2019-04-23T14:08:13.641Z,10.10
2019-04-23T14:11:26.410Z,10.07
2019-04-23T14:14:42.133Z,9.20
2019-04-23T14:17:46.959Z,9.90
2019-04-23T14:20:40.760Z,9.20
2019-04-23T14:24:03.065Z,9.73
2019-04-23T14:26:58.395Z,9.90
2019-04-23T14:30:21.755Z,9.40
2019-04-23T14:36:21.528Z,9.27
2019-04-23T14:39:24.041Z,9.90
2019-04-23T14:42:53.905Z,10.00
2019-04-23T14:49:11.931Z,10.40
2019-04-23T14:52:21.266Z,10.10
2019-04-23T15:01:47.665Z,10.53
2019-04-23T15:07:58.707Z,10.37
2019-04-23T15:14:08.827Z,10.73
2019-04-23T15:17:20.034Z,10.50
2019-04-23T15:20:30.616Z,11.17
2019-04-23T15:29:42.090Z,11.13
2019-04-23T15:33:09.927Z,11.50
2019-04-23T15:36:30.597Z,12.27
2019-04-23T15:39:24.515Z,11.20
2019-04-23T15:42:25.446Z,11.70
2019-04-23T15:45:28.871Z,11.53
2019-04-23T15:49:01.442Z,12.60
2019-04-23T16:01:28.994Z,12.57
2019-04-23T16:03:59.525Z,11.10
2019-04-23T16:07:07.503Z,11.90
2019-04-23T16:10:52.331Z,11.60
2019-04-23T16:14:04.679Z,11.80
2019-04-23T16:17:00.130Z,11.80
2019-04-23T16:23:17.825Z,11.20
2019-04-23T16:26:31.315Z,12.17
2019-04-23T16:29:48.945Z,12.33
2019-04-23T16:36:12.698Z,11.77
2019-04-23T16:39:18.553Z,11.27
2019-04-23T16:45:31.051Z,13.10
2019-04-23T16:48:50.674Z,12.97
2019-04-23T16:52:01.792Z,13.30
2019-04-23T16:54:55.202Z,12.50
2019-04-23T16:58:11.893Z,14.00
2019-04-23T17:07:20.431Z,13.27
2019-04-23T17:10:39.604Z,11.90
2019-04-23T17:13:50.995Z,13.27
2019-04-23T17:16:44.404Z,13.07
2019-04-23T17:20:00.044Z,12.90
2019-04-23T17:23:10.114Z,14.00
2019-04-23T17:26:25.584Z,13.20
2019-04-23T17:32:23.650Z,13.70
2019-04-23T17:39:01.361Z,13.20
2019-04-23T17:42:21.235Z,14.20
2019-04-23T17:48:28.717Z,13.30
2019-04-23T17:51:42.303Z,13.50
2019-04-23T17:58:03.873Z,14.17
2019-04-23T18:01:17.087Z,13.20
2019-04-23T18:04:32.992Z,14.07
2019-04-23T18:07:37.783Z,13.60
2019-04-23T18:10:37.030Z,13.60
2019-04-23T18:13:45.707Z,13.70
2019-04-23T18:20:16.729Z,13.60
2019-04-23T18:23:25.817Z,13.70
2019-04-23T18:27:05.129Z,14.93
2019-04-23T18:30:08.101Z,14.40
2019-04-23T18:33:49.067Z,14.40
2019-04-23T18:36:21.724Z,14.50
2019-04-23T18:39:38.194Z,15.10
2019-04-23T18:42:46.476Z,14.37
2019-04-23T18:45:53.831Z,15.47
2019-04-23T18:48:52.864Z,15.97
2019-04-23T18:52:04.767Z,15.43
2019-04-23T18:55:16.659Z,14.60
2019-04-23T18:58:21.940Z,14.70
2019-04-23T19:01:31.097Z,14.97
2019-04-23T19:08:51.449Z,14.90
2019-04-23T19:11:59.683Z,15.70
2019-04-23T19:14:47.441Z,14.87
2019-04-23T19:17:51.621Z,14.73
2019-04-23T19:24:03.503Z,15.73
2019-04-23T19:27:28.690Z,16.63
2019-04-23T19:33:45.439Z,15.83
2019-04-23T19:39:58.529Z,15.97
2019-04-23T19:43:00.915Z,15.30
2019-04-23T19:46:34.682Z,15.43
2019-04-23T19:52:34.776Z,15.50
2019-04-23T19:55:48.006Z,16.40
2019-04-23T19:58:46.766Z,15.20
2019-04-23T20:01:58.943Z,15.13
2019-04-23T20:04:55.500Z,15.53
2019-04-23T20:11:13.692Z,15.10
2019-04-23T20:14:21.913Z,15.20
2019-04-23T20:17:37.992Z,15.47
2019-04-23T20:20:43.885Z,14.90
2019-04-23T20:27:00.722Z,16.60
2019-04-23T20:30:32.325Z,16.40
2019-04-23T20:33:59.118Z,16.73
2019-04-23T20:39:53.701Z,16.00
2019-04-23T20:46:10.769Z,15.50
2019-04-23T20:49:31.831Z,15.37
2019-04-23T20:52:30.089Z,16.33
2019-04-23T20:55:39.145Z,15.40
2019-04-23T20:58:55.612Z,15.97
2019-04-23T21:02:14.835Z,15.40
2019-04-23T21:05:19.190Z,15.30
2019-04-23T21:08:30.354Z,15.53
2019-04-23T21:11:36.216Z,16.53
2019-04-23T21:17:51.305Z,16.63
2019-04-23T21:27:20.294Z,16.97
2019-04-23T21:34:06.198Z,15.67
2019-04-23T21:36:56.810Z,16.50
2019-04-23T21:44:05.598Z,16.70
2019-04-23T21:46:52.665Z,16.37
2019-04-23T21:50:12.012Z,15.50
2019-04-23T21:53:07.141Z,15.70
2019-04-23T21:59:10.516Z,16.67
2019-04-23T22:02:28.773Z,15.70
2019-04-23T22:08:45.886Z,15.17
2019-04-23T22:14:50.355Z,15.97
2019-04-23T22:18:00.231Z,16.60
2019-04-23T22:21:17.372Z,15.97
2019-04-23T22:24:28.806Z,16.13
2019-04-23T22:27:16.359Z,16.50
2019-04-23T22:30:38.605Z,15.53
2019-04-23T22:33:48.197Z,15.93
2019-04-23T22:36:51.926Z,15.67
2019-04-23T22:39:54.185Z,15.40
2019-04-23T22:46:05.363Z,15.30
2019-04-23T22:52:22.915Z,16.17
2019-04-23T22:55:38.852Z,16.20
2019-04-23T22:58:56.410Z,16.53
2019-04-23T23:01:57.222Z,15.80
2019-04-23T23:05:14.140Z,16.07
2019-04-23T23:11:08.858Z,14.93
2019-04-23T23:14:22.372Z,14.53
2019-04-23T23:17:24.631Z,16.20
2019-04-23T23:20:30.272Z,15.43
2019-04-23T23:23:39.432Z,14.50
2019-04-23T23:26:49.810Z,14.83
2019-04-23T23:30:06.395Z,15.50
2019-04-23T23:33:04.133Z,15.63
2019-04-23T23:36:25.112Z,15.40
2019-04-23T23:45:35.406Z,16.13
2019-04-23T23:51:44.789Z,13.93
2019-04-23T23:55:03.734Z,15.47
